Time;durP1;ratioP1;P1;durP2;ratioP2;P2;SDS_P1;SDS_P2;PMS_P1;PMS_P2;Temp;Humidity;BMP_temperature;BMP_pressure;BME280_temperature;BME280_humidity;BME280_pressure;Samples;Min_cycle;Max_cycle;Signal;HPM_P1;HPM_P2
2022/04/14 00:02:18;;;;;;;3.22;3.03;;;;;;;;;;5010484;28;20045;-78
2022/04/14 00:04:45;;;;;;;2.85;2.65;;;;;;;;;;4991956;28;20504;-76
2022/04/14 00:07:11;;;;;;;3.45;3.15;;;;;;;;;;4976027;28;20050;-77
2022/04/14 00:09:37;;;;;;;4.57;3.47;;;;;;;;;;5009297;28;20052;-77
2022/04/14 00:12:03;;;;;;;2.95;2.75;;;;;;;;;;4992157;28;20522;-77
2022/04/14 00:14:29;;;;;;;3.72;3.42;;;;;;;;;;4991816;28;20413;-76
2022/04/14 00:16:55;;;;;;;3.63;3.33;;;;;;;;;;5009765;28;20038;-76
2022/04/14 00:19:21;;;;;;;4.15;3.75;;;;;;;;;;5009744;28;20053;-76
2022/04/14 00:21:47;;;;;;;3.90;3.60;;;;;;;;;;5009491;28;20629;-76
2022/04/14 00:24:12;;;;;;;4.78;4.43;;;;;;;;;;5009624;28;20067;-75
2022/04/14 00:26:40;;;;;;;4.47;4.18;;;;;;;;;;5008308;28;20049;-76
2022/04/14 00:29:06;;;;;;;4.38;3.97;;;;;;;;;;5009779;28;20128;-76
2022/04/14 00:31:31;;;;;;;4.47;4.18;;;;;;;;;;5009431;28;20093;-77
2022/04/14 00:33:57;;;;;;;3.90;3.50;;;;;;;;;;4975934;28;20456;-77
2022/04/14 00:36:23;;;;;;;5.07;4.05;;;;;;;;;;5012724;28;20053;-76
2022/04/14 00:38:49;;;;;;;3.85;3.55;;;;;;;;;;5012075;28;20536;-77
2022/04/14 00:41:16;;;;;;;3.75;3.45;;;;;;;;;;5012261;28;20046;-76
2022/04/14 00:43:43;;;;;;;3.45;3.15;;;;;;;;;;5011699;28;20130;-75
2022/04/14 00:46:09;;;;;;;5.07;3.50;;;;;;;;;;5014554;28;20465;-75
2022/04/14 00:48:35;;;;;;;3.60;3.33;;;;;;;;;;5012903;28;20052;-75
2022/04/14 00:51:03;;;;;;;5.43;3.13;;;;;;;;;;5013063;28;20045;-74
2022/04/14 00:53:28;;;;;;;3.35;3.15;;;;;;;;;;4994997;28;20049;-75
2022/04/14 00:55:55;;;;;;;3.28;3.08;;;;;;;;;;4994672;28;20108;-75
2022/04/14 00:58:20;;;;;;;3.58;3.28;;;;;;;;;;5012753;28;20505;-74
2022/04/14 01:00:46;;;;;;;3.35;3.15;;;;;;;;;;4994538;28;20053;-77
2022/04/14 01:03:12;;;;;;;3.35;3.08;;;;;;;;;;5012681;28;20049;-75
2022/04/14 01:05:38;;;;;;;2.60;2.50;;;;;;;;;;4994480;28;20092;-76
2022/04/14 01:08:05;;;;;;;3.17;2.97;;;;;;;;;;4995039;28;20129;-76
2022/04/14 01:10:31;;;;;;;2.90;2.70;;;;;;;;;;4994671;28;20097;-76
2022/04/14 01:12:57;;;;;;;2.65;2.45;;;;;;;;;;4994571;28;20513;-76
2022/04/14 01:15:23;;;;;;;3.97;2.67;;;;;;;;;;5012241;28;20154;-76
2022/04/14 01:17:48;;;;;;;3.10;2.90;;;;;;;;;;5012122;28;20034;-76
2022/04/14 01:20:14;;;;;;;3.13;2.88;;;;;;;;;;5012211;28;20041;-77
2022/04/14 01:22:45;;;;;;;7.35;2.80;;;;;;;;;;5012104;28;20559;-77
2022/04/14 01:25:11;;;;;;;2.75;2.55;;;;;;;;;;4978504;28;20042;-78
2022/04/14 01:27:37;;;;;;;2.92;2.72;;;;;;;;;;4994587;28;20124;-79
2022/04/14 01:30:03;;;;;;;2.40;2.20;;;;;;;;;;5012005;28;20204;-77
2022/04/14 01:32:29;;;;;;;2.83;2.72;;;;;;;;;;4994417;28;20041;-78
2022/04/14 01:34:55;;;;;;;2.85;2.65;;;;;;;;;;4977910;28;20056;-77
2022/04/14 01:37:21;;;;;;;2.55;2.38;;;;;;;;;;5011954;28;20046;-77
2022/04/14 01:39:47;;;;;;;2.72;2.30;;;;;;;;;;4993117;28;20049;-75
2022/04/14 01:42:12;;;;;;;2.97;2.78;;;;;;;;;;4994284;28;20049;-76
2022/04/14 01:44:38;;;;;;;3.22;2.97;;;;;;;;;;5011482;28;20108;-77
2022/04/14 01:47:04;;;;;;;2.95;2.70;;;;;;;;;;4994606;28;20056;-75
2022/04/14 01:49:30;;;;;;;1.85;1.75;;;;;;;;;;5011752;28;20510;-76
2022/04/14 01:51:56;;;;;;;2.47;2.22;;;;;;;;;;4977623;28;20057;-77
2022/04/14 01:54:22;;;;;;;4.70;2.92;;;;;;;;;;5011398;28;20077;-76
2022/04/14 01:56:49;;;;;;;2.10;2.00;;;;;;;;;;4993203;28;20054;-75
2022/04/14 01:59:15;;;;;;;2.55;2.40;;;;;;;;;;4993982;28;20049;-75
2022/04/14 02:01:41;;;;;;;2.90;2.70;;;;;;;;;;5011117;28;20100;-77
2022/04/14 02:04:07;;;;;;;2.58;2.47;;;;;;;;;;5011467;28;20049;-77
2022/04/14 02:06:33;;;;;;;2.78;2.67;;;;;;;;;;5011523;28;20445;-77
2022/04/14 02:08:59;;;;;;;3.55;3.25;;;;;;;;;;5011559;28;20591;-75
2022/04/14 02:11:25;;;;;;;2.97;2.78;;;;;;;;;;4977872;28;20633;-75
2022/04/14 02:13:51;;;;;;;7.53;2.63;;;;;;;;;;5010843;28;20096;-76
2022/04/14 02:16:17;;;;;;;2.83;2.72;;;;;;;;;;4993761;28;20504;-75
2022/04/14 02:18:43;;;;;;;2.30;2.20;;;;;;;;;;5010939;28;20038;-77
2022/04/14 02:21:09;;;;;;;2.70;2.60;;;;;;;;;;4977227;28;20523;-75
2022/04/14 02:23:35;;;;;;;3.58;3.38;;;;;;;;;;4993234;28;20038;-76
2022/04/14 02:26:00;;;;;;;3.13;2.92;;;;;;;;;;5010798;28;20505;-75
2022/04/14 02:28:26;;;;;;;2.92;2.80;;;;;;;;;;4993618;28;20073;-75
2022/04/14 02:30:52;;;;;;;3.20;3.00;;;;;;;;;;5010484;28;20045;-75
2022/04/14 02:33:18;;;;;;;3.20;3.00;;;;;;;;;;5010788;28;20125;-75
2022/04/14 02:35:44;;;;;;;2.80;2.70;;;;;;;;;;4976546;28;20153;-76
2022/04/14 02:38:10;;;;;;;3.33;3.13;;;;;;;;;;5011486;28;20506;-80
2022/04/14 02:40:36;;;;;;;3.80;3.58;;;;;;;;;;5012113;28;20046;-80
2022/04/14 02:43:01;;;;;;;3.75;3.55;;;;;;;;;;5014152;28;20557;-79
2022/04/14 02:45:27;;;;;;;4.57;4.28;;;;;;;;;;5025891;28;20052;-74
2022/04/14 02:47:53;;;;;;;3.60;3.40;;;;;;;;;;5010134;28;20057;-75
2022/04/14 02:50:20;;;;;;;3.60;3.40;;;;;;;;;;5010492;28;20053;-72
2022/04/14 02:52:49;;;;;;;5.07;2.70;;;;;;;;;;4992761;28;20065;-73
2022/04/14 05:40:13;;;;;;;3.13;2.53;;;;;;;;;;4981618;28;20062;-70
2022/04/14 05:42:45;;;;;;;2.55;2.40;;;;;;;;;;4973828;28;20572;-71
2022/04/14 05:45:12;;;;;;;3.00;2.05;;;;;;;;;;4991409;28;20509;-71
2022/04/14 05:47:38;;;;;;;2.40;2.30;;;;;;;;;;4990747;28;20046;-71
2022/04/14 05:50:04;;;;;;;4.65;2.45;;;;;;;;;;4991125;28;20081;-72
2022/04/14 05:52:30;;;;;;;6.47;2.88;;;;;;;;;;4973796;28;20132;-71
2022/04/14 05:54:58;;;;;;;3.08;2.45;;;;;;;;;;4991127;28;20546;-72
2022/04/14 05:57:23;;;;;;;3.40;2.60;;;;;;;;;;4991095;28;20049;-73
2022/04/14 05:59:49;;;;;;;4.55;4.15;;;;;;;;;;4990974;28;20054;-72
2022/04/14 06:02:17;;;;;;;2.55;2.35;;;;;;;;;;4978926;28;20038;-72
2022/04/14 06:04:43;;;;;;;4.15;3.25;;;;;;;;;;4990801;28;20046;-72
2022/04/14 06:07:10;;;;;;;2.30;2.20;;;;;;;;;;4989639;28;20069;-72
2022/04/14 06:09:36;;;;;;;2.03;1.92;;;;;;;;;;4990995;28;20035;-72
2022/04/14 06:12:01;;;;;;;5.43;2.80;;;;;;;;;;4973365;28;20046;-72
2022/04/14 06:14:30;;;;;;;3.17;2.80;;;;;;;;;;4990703;28;20577;-72
2022/04/14 06:16:56;;;;;;;2.78;2.05;;;;;;;;;;4973213;28;20046;-73
2022/04/14 06:19:22;;;;;;;2.65;2.45;;;;;;;;;;4990842;28;20388;-72
2022/04/14 06:21:48;;;;;;;2.65;2.00;;;;;;;;;;4990584;28;20105;-73
2022/04/14 06:24:14;;;;;;;2.55;2.42;;;;;;;;;;4989446;28;20046;-73
2022/04/14 06:26:40;;;;;;;2.25;2.10;;;;;;;;;;4990545;28;20092;-72
2022/04/14 06:29:06;;;;;;;2.05;1.90;;;;;;;;;;4990592;28;20034;-72
2022/04/14 06:31:35;;;;;;;5.43;2.65;;;;;;;;;;5005235;28;20050;-72
2022/04/14 06:34:05;;;;;;;2.97;2.78;;;;;;;;;;4990661;28;20057;-71
2022/04/14 06:36:31;;;;;;;2.33;2.22;;;;;;;;;;4990467;28;20050;-71
2022/04/14 06:38:56;;;;;;;1.92;1.83;;;;;;;;;;4999863;28;20092;-73
2022/04/14 06:41:23;;;;;;;7.78;2.42;;;;;;;;;;5009152;28;20056;-71
2022/04/14 06:43:49;;;;;;;1.90;1.90;;;;;;;;;;5009506;28;20069;-72
2022/04/14 06:46:16;;;;;;;3.83;2.25;;;;;;;;;;5009526;28;20323;-72
2022/04/14 06:48:42;;;;;;;4.25;2.35;;;;;;;;;;5010025;28;20045;-70
2022/04/14 06:51:07;;;;;;;2.72;2.53;;;;;;;;;;5009801;28;20476;-71
2022/04/14 06:53:34;;;;;;;3.45;2.60;;;;;;;;;;5010252;28;20034;-71
2022/04/14 06:56:00;;;;;;;3.58;2.63;;;;;;;;;;5009589;28;20089;-72
2022/04/14 06:58:26;;;;;;;4.80;3.67;;;;;;;;;;4991262;28;20549;-71
2022/04/14 07:00:51;;;;;;;4.32;2.20;;;;;;;;;;4996013;28;20426;-72
2022/04/14 07:03:19;;;;;;;3.55;2.50;;;;;;;;;;4989973;28;20097;-72
2022/04/14 07:05:46;;;;;;;2.47;2.20;;;;;;;;;;4992897;28;20049;-71
2022/04/14 07:08:12;;;;;;;2.30;2.20;;;;;;;;;;5028887;28;20045;-71
2022/04/14 07:10:38;;;;;;;3.47;2.15;;;;;;;;;;5010686;28;20041;-71
2022/04/14 07:13:04;;;;;;;3.08;2.03;;;;;;;;;;5019670;28;20136;-72
2022/04/14 07:15:30;;;;;;;2.03;1.92;;;;;;;;;;4992753;28;20407;-72
2022/04/14 07:17:55;;;;;;;2.08;2.00;;;;;;;;;;5010435;28;20042;-73
2022/04/14 07:20:21;;;;;;;1.70;1.60;;;;;;;;;;5029215;28;20144;-71
2022/04/14 07:22:50;;;;;;;2.13;1.88;;;;;;;;;;5029238;28;20049;-72
2022/04/14 07:25:16;;;;;;;4.47;2.25;;;;;;;;;;4996185;28;20575;-72
2022/04/14 07:27:43;;;;;;;2.10;2.00;;;;;;;;;;5011445;28;20049;-71
2022/04/14 07:30:09;;;;;;;1.98;1.88;;;;;;;;;;5019158;28;20132;-71
2022/04/14 07:32:39;;;;;;;2.00;1.90;;;;;;;;;;5015066;28;20046;-71
2022/04/14 07:35:05;;;;;;;3.97;1.70;;;;;;;;;;4991625;28;20057;-71
2022/04/14 07:37:32;;;;;;;2.17;1.70;;;;;;;;;;5009565;28;20556;-73
2022/04/14 07:39:57;;;;;;;1.77;1.50;;;;;;;;;;5003579;28;20049;-77
2022/04/14 07:42:34;;;;;;;2.20;1.80;;;;;;;;;;4992709;28;20042;-75
2022/04/14 07:45:00;;;;;;;4.50;1.58;;;;;;;;;;4989055;28;20053;-75
2022/04/14 07:47:25;;;;;;;2.63;1.98;;;;;;;;;;5001888;28;20446;-73
2022/04/14 07:49:51;;;;;;;1.73;1.63;;;;;;;;;;5003089;28;20491;-74
2022/04/14 07:52:17;;;;;;;3.53;2.50;;;;;;;;;;5006266;28;20599;-76
2022/04/14 07:54:44;;;;;;;1.50;1.50;;;;;;;;;;5018869;28;20387;-76
2022/04/14 07:57:10;;;;;;;2.80;2.28;;;;;;;;;;5013635;28;20072;-76
2022/04/14 07:59:36;;;;;;;3.03;1.90;;;;;;;;;;5031482;28;20591;-75
2022/04/14 08:02:02;;;;;;;2.72;2.00;;;;;;;;;;5031626;28;20053;-76
2022/04/14 08:04:30;;;;;;;5.03;1.80;;;;;;;;;;5001299;28;20049;-75
2022/04/14 08:06:56;;;;;;;4.20;2.00;;;;;;;;;;4999150;28;20125;-76
2022/04/14 08:09:21;;;;;;;2.90;1.55;;;;;;;;;;5013653;28;20129;-76
2022/04/14 08:11:48;;;;;;;1.75;1.52;;;;;;;;;;5013404;28;20518;-75
2022/04/14 08:14:13;;;;;;;5.93;1.95;;;;;;;;;;5030935;28;20048;-75
2022/04/14 08:16:39;;;;;;;1.80;1.67;;;;;;;;;;5013566;28;20045;-74
2022/04/14 08:19:06;;;;;;;1.70;1.60;;;;;;;;;;4996855;28;20133;-75
2022/04/14 08:21:31;;;;;;;3.38;1.75;;;;;;;;;;5013259;28;20045;-75
2022/04/14 08:23:58;;;;;;;1.67;1.58;;;;;;;;;;5015557;28;20049;-75
2022/04/14 08:26:26;;;;;;;1.70;1.60;;;;;;;;;;5010505;28;20037;-75
2022/04/14 08:28:53;;;;;;;1.92;1.70;;;;;;;;;;5013201;28;20449;-75
2022/04/14 08:31:21;;;;;;;4.68;1.50;;;;;;;;;;5012964;28;20126;-75
2022/04/14 08:33:48;;;;;;;2.13;1.90;;;;;;;;;;4957561;28;20050;-75
2022/04/14 08:36:15;;;;;;;2.97;1.60;;;;;;;;;;5008234;28;20054;-75
2022/04/14 08:38:41;;;;;;;1.30;1.30;;;;;;;;;;4993262;28;20061;-76
2022/04/14 08:41:07;;;;;;;4.97;1.42;;;;;;;;;;4993195;28;20133;-74
2022/04/14 08:43:34;;;;;;;2.17;1.38;;;;;;;;;;4976130;28;20038;-75
2022/04/14 08:46:00;;;;;;;1.75;1.65;;;;;;;;;;4975562;28;20046;-75
2022/04/14 08:48:26;;;;;;;9.30;3.22;;;;;;;;;;4975997;28;20034;-74
2022/04/14 08:50:52;;;;;;;2.03;1.70;;;;;;;;;;4975406;28;20049;-75
2022/04/14 08:53:18;;;;;;;4.47;2.05;;;;;;;;;;4993323;28;20042;-75
2022/04/14 08:55:44;;;;;;;1.85;1.75;;;;;;;;;;4993119;28;20112;-75
2022/04/14 08:58:12;;;;;;;1.73;1.45;;;;;;;;;;4975811;28;20121;-75
2022/04/14 09:00:37;;;;;;;1.73;1.50;;;;;;;;;;4976155;28;20069;-74
2022/04/14 09:03:03;;;;;;;1.70;1.60;;;;;;;;;;4993394;28;20510;-76
2022/04/14 09:05:30;;;;;;;2.38;1.55;;;;;;;;;;4992960;28;20077;-75
2022/04/14 09:07:55;;;;;;;1.27;1.27;;;;;;;;;;4996639;28;20210;-76
2022/04/14 09:10:21;;;;;;;2.00;1.90;;;;;;;;;;4966946;28;20046;-76
2022/04/14 09:12:48;;;;;;;3.42;1.70;;;;;;;;;;5001486;28;20494;-74
2022/04/14 09:15:15;;;;;;;3.28;1.60;;;;;;;;;;4997786;28;20056;-76
2022/04/14 09:17:41;;;;;;;1.83;1.45;;;;;;;;;;4993892;28;20040;-74
2022/04/14 09:20:25;;;;;;;2.03;1.45;;;;;;;;;;4993067;28;20128;-76
2022/04/14 09:23:10;;;;;;;1.25;1.20;;;;;;;;;;4993016;28;20042;-75
2022/04/14 09:25:36;;;;;;;3.00;1.73;;;;;;;;;;4992592;28;20047;-76
2022/04/14 09:28:11;;;;;;;2.78;1.90;;;;;;;;;;4975498;28;20045;-76
2022/04/14 09:30:38;;;;;;;1.65;1.55;;;;;;;;;;4992449;28;20092;-75
2022/04/14 09:33:04;;;;;;;1.80;1.67;;;;;;;;;;4988564;28;20046;-76
2022/04/14 09:35:31;;;;;;;1.38;1.30;;;;;;;;;;4994382;28;20112;-75
2022/04/14 09:38:02;;;;;;;3.55;1.55;;;;;;;;;;5012034;28;20046;-75
2022/04/14 09:40:28;;;;;;;;;;;;;;;;;;5012036;28;20065;-74
2022/04/14 09:42:54;;;;;;;5.65;4.25;;;;;;;;;;5011612;28;20000;-75
2022/04/14 09:45:20;;;;;;;1.77;1.67;;;;;;;;;;5011578;28;20134;-75
2022/04/14 09:47:50;;;;;;;1.50;1.40;;;;;;;;;;4993885;28;20041;-75
2022/04/14 09:50:26;;;;;;;4.20;3.85;;;;;;;;;;5011396;28;20056;-76
2022/04/14 09:52:59;;;;;;;3.80;2.70;;;;;;;;;;5011597;28;20041;-75
2022/04/14 09:55:25;;;;;;;1.30;1.30;;;;;;;;;;4993686;28;20046;-75
2022/04/14 09:58:08;;;;;;;1.88;1.77;;;;;;;;;;5011352;28;20493;-75
2022/04/14 10:00:37;;;;;;;2.92;1.50;;;;;;;;;;4993952;28;20128;-74
2022/04/14 10:03:09;;;;;;;6.35;2.03;;;;;;;;;;5011571;28;20294;-75
2022/04/14 10:05:35;;;;;;;1.27;1.10;;;;;;;;;;5010908;28;20096;-74
2022/04/14 10:08:01;;;;;;;2.65;1.60;;;;;;;;;;4993878;28;20041;-75
2022/04/14 10:10:27;;;;;;;1.70;1.60;;;;;;;;;;5011439;28;20041;-75
2022/04/14 10:13:12;;;;;;;3.08;2.20;;;;;;;;;;5011677;28;20144;-75
2022/04/14 10:15:38;;;;;;;5.05;2.95;;;;;;;;;;5011637;28;20403;-75
2022/04/14 10:18:06;;;;;;;2.67;1.85;;;;;;;;;;4993692;28;20046;-75
2022/04/14 10:20:32;;;;;;;1.95;1.83;;;;;;;;;;4993757;28;20034;-75
2022/04/14 10:23:00;;;;;;;3.42;2.15;;;;;;;;;;5010834;28;20049;-76
2022/04/14 10:25:26;;;;;;;2.35;1.33;;;;;;;;;;4993279;28;20525;-75
2022/04/14 10:27:53;;;;;;;3.55;3.00;;;;;;;;;;4993155;28;20128;-75
2022/04/14 10:30:20;;;;;;;4.65;3.17;;;;;;;;;;5010399;28;20108;-74
2022/04/14 10:32:46;;;;;;;1.17;1.17;;;;;;;;;;5010496;28;20077;-74
2022/04/14 10:35:12;;;;;;;1.70;1.60;;;;;;;;;;5010380;28;20081;-76
2022/04/14 10:37:43;;;;;;;2.05;1.40;;;;;;;;;;5025916;28;20053;-75
2022/04/14 10:40:09;;;;;;;1.40;1.30;;;;;;;;;;5009004;28;20085;-75
2022/04/14 10:42:36;;;;;;;2.35;1.70;;;;;;;;;;4976997;28;20046;-75
2022/04/14 10:45:14;;;;;;;3.65;2.25;;;;;;;;;;5010574;28;20103;-76
2022/04/14 10:47:43;;;;;;;10.35;5.75;;;;;;;;;;4992906;28;20058;-75
2022/04/14 10:50:22;;;;;;;2.85;1.88;;;;;;;;;;5025657;28;20050;-75
2022/04/14 10:53:06;;;;;;;1.42;1.42;;;;;;;;;;4992900;28;20046;-74
2022/04/14 10:55:38;;;;;;;3.47;3.17;;;;;;;;;;5010086;28;20100;-75
2022/04/14 10:58:04;;;;;;;1.92;1.30;;;;;;;;;;5010470;28;20579;-76
2022/04/14 11:00:35;;;;;;;4.95;1.55;;;;;;;;;;5009848;28;20049;-76
2022/04/14 11:03:01;;;;;;;;;;;;;;;;;;5010704;28;20042;-76
2022/04/14 11:05:56;;;;;;;3.15;2.42;;;;;;;;;;5010131;28;19983;-75
2022/04/14 11:08:29;;;;;;;4.55;1.40;;;;;;;;;;4997064;28;20041;-76
2022/04/14 11:11:09;;;;;;;2.55;1.90;;;;;;;;;;5025459;28;20054;-75
2022/04/14 11:13:53;;;;;;;1.48;1.38;;;;;;;;;;5010584;28;20049;-76
2022/04/14 11:16:52;;;;;;;1.63;1.50;;;;;;;;;;5009950;28;20053;-76
2022/04/14 11:19:27;;;;;;;2.08;1.83;;;;;;;;;;4977257;28;20038;-75
2022/04/14 11:22:02;;;;;;;2.80;2.50;;;;;;;;;;5009922;28;20572;-75
2022/04/14 11:24:37;;;;;;;3.65;2.35;;;;;;;;;;5008877;28;20045;-75
2022/04/14 11:27:07;;;;;;;1.63;1.55;;;;;;;;;;5010038;28;20045;-75
2022/04/14 11:29:33;;;;;;;1.38;1.38;;;;;;;;;;5009584;28;20673;-75
2022/04/14 11:31:59;;;;;;;2.20;1.75;;;;;;;;;;5009558;28;20265;-75
2022/04/14 11:34:34;;;;;;;1.30;1.30;;;;;;;;;;5009802;28;20390;-76
2022/04/14 11:37:01;;;;;;;1.88;1.40;;;;;;;;;;5025168;28;20552;-75
2022/04/14 11:39:27;;;;;;;1.67;1.50;;;;;;;;;;5009519;28;20489;-74
2022/04/14 11:41:53;;;;;;;2.25;1.88;;;;;;;;;;5009812;28;20045;-75
2022/04/14 11:44:20;;;;;;;2.10;1.90;;;;;;;;;;5009673;28;20045;-76
2022/04/14 11:46:50;;;;;;;8.55;1.50;;;;;;;;;;5009910;28;20080;-76
2022/04/14 11:49:21;;;;;;;4.47;2.90;;;;;;;;;;5009905;28;20044;-75
2022/04/14 11:51:50;;;;;;;1.70;1.60;;;;;;;;;;5008207;28;20061;-75
2022/04/14 11:54:19;;;;;;;3.33;1.40;;;;;;;;;;5009689;28;20049;-75
2022/04/14 11:56:54;;;;;;;2.70;1.45;;;;;;;;;;4992150;28;20103;-75
2022/04/14 11:59:41;;;;;;;1.48;1.27;;;;;;;;;;4992086;28;20049;-76
2022/04/14 12:02:11;;;;;;;5.75;1.95;;;;;;;;;;5009864;28;20049;-75
2022/04/14 12:04:40;;;;;;;1.60;1.50;;;;;;;;;;5009903;28;20030;-75
2022/04/14 12:07:06;;;;;;;2.40;1.42;;;;;;;;;;4992749;28;20038;-75
2022/04/14 12:09:32;;;;;;;1.20;1.20;;;;;;;;;;5009744;28;20038;-76
2022/04/14 12:12:18;;;;;;;3.83;1.75;;;;;;;;;;4992167;28;20133;-75
2022/04/14 12:14:45;;;;;;;2.05;1.30;;;;;;;;;;5012063;28;20062;-76
2022/04/14 12:17:12;;;;;;;2.35;1.35;;;;;;;;;;5012143;28;20050;-76
2022/04/14 12:19:41;;;;;;;3.70;1.67;;;;;;;;;;4992679;28;20128;-75
2022/04/14 12:22:07;;;;;;;1.45;1.38;;;;;;;;;;4992440;28;20094;-75
2022/04/14 12:24:34;;;;;;;1.50;1.40;;;;;;;;;;5009519;28;20041;-75
2022/04/14 12:27:00;;;;;;;1.50;1.40;;;;;;;;;;4991663;28;20575;-75
2022/04/14 12:29:26;;;;;;;2.05;1.42;;;;;;;;;;4959694;28;20074;-76
2022/04/14 12:32:11;;;;;;;5.07;1.55;;;;;;;;;;5020158;28;20533;-75
2022/04/14 12:34:40;;;;;;;1.75;1.65;;;;;;;;;;5006691;28;20466;-75
2022/04/14 12:37:13;;;;;;;1.25;1.23;;;;;;;;;;4991801;28;20041;-76
2022/04/14 12:39:59;;;;;;;1.75;1.35;;;;;;;;;;4982075;28;20149;-75
2022/04/14 12:42:26;;;;;;;3.58;1.70;;;;;;;;;;4993312;28;20286;-75
2022/04/14 12:44:52;;;;;;;1.52;1.42;;;;;;;;;;4992116;28;20042;-75
2022/04/14 12:47:21;;;;;;;3.17;1.90;;;;;;;;;;4991459;28;20088;-75
2022/04/14 12:49:47;;;;;;;3.22;1.73;;;;;;;;;;4975957;28;20050;-74
2022/04/14 12:52:17;;;;;;;1.55;1.45;;;;;;;;;;5007863;28;20421;-75
2022/04/14 12:54:46;;;;;;;1.33;1.33;;;;;;;;;;4995388;28;20058;-75
2022/04/14 12:57:16;;;;;;;2.58;1.35;;;;;;;;;;4979137;28;20050;-74
2022/04/14 12:59:50;;;;;;;2.13;1.85;;;;;;;;;;5012675;28;20203;-75
2022/04/14 13:02:16;;;;;;;1.50;1.40;;;;;;;;;;5011205;28;20587;-75
2022/04/14 13:04:42;;;;;;;1.70;1.50;;;;;;;;;;5012774;28;20041;-76
2022/04/14 13:07:15;;;;;;;1.60;1.52;;;;;;;;;;5012886;28;20038;-74
2022/04/14 13:09:56;;;;;;;2.50;1.75;;;;;;;;;;4996071;28;20048;-75
2022/04/14 13:12:41;;;;;;;1.40;1.30;;;;;;;;;;5017249;28;20038;-75
2022/04/14 13:15:09;;;;;;;2.97;2.47;;;;;;;;;;5004137;28;20057;-76
2022/04/14 13:17:38;;;;;;;2.45;1.50;;;;;;;;;;5019485;28;20042;-75
2022/04/14 13:20:08;;;;;;;3.08;2.47;;;;;;;;;;4980279;28;20049;-76
2022/04/14 13:22:34;;;;;;;4.35;1.80;;;;;;;;;;4994769;28;20041;-75
2022/04/14 13:25:00;;;;;;;1.48;1.38;;;;;;;;;;5012253;28;20038;-75
2022/04/14 13:27:26;;;;;;;2.58;1.75;;;;;;;;;;5011665;28;20049;-75
2022/04/14 13:29:52;;;;;;;3.22;1.77;;;;;;;;;;4994655;28;20056;-76
2022/04/14 13:32:18;;;;;;;1.35;1.35;;;;;;;;;;4991881;28;20072;-76
2022/04/14 13:34:44;;;;;;;7.35;2.10;;;;;;;;;;4994557;28;20566;-75
2022/04/14 13:37:09;;;;;;;5.63;4.63;;;;;;;;;;5011581;28;20099;-75
2022/04/14 13:39:36;;;;;;;1.40;1.38;;;;;;;;;;4994346;28;20521;-76
2022/04/14 13:42:03;;;;;;;1.63;1.52;;;;;;;;;;4994536;28;20081;-75
2022/04/14 16:35:07;;;;;;;1.85;1.67;;;;;;;;;;4998995;28;20065;-77
2022/04/14 16:37:33;;;;;;;4.80;1.67;;;;;;;;;;4983253;28;20039;-76
2022/04/14 16:39:59;;;;;;;1.83;1.73;;;;;;;;;;4973066;28;20058;-75
2022/04/14 16:42:26;;;;;;;8.55;1.80;;;;;;;;;;4991235;28;20092;-76
2022/04/14 16:44:53;;;;;;;3.17;2.15;;;;;;;;;;4954863;28;20046;-77
2022/04/14 16:47:19;;;;;;;2.20;1.85;;;;;;;;;;4972980;28;20050;-76
2022/04/14 16:49:45;;;;;;;1.73;1.63;;;;;;;;;;4986313;28;20034;-77
2022/04/14 16:52:13;;;;;;;2.30;2.10;;;;;;;;;;4987903;28;20041;-76
2022/04/14 16:54:39;;;;;;;7.95;2.28;;;;;;;;;;5002282;28;20546;-77
2022/04/14 16:57:07;;;;;;;3.67;2.80;;;;;;;;;;5001258;28;20038;-76
2022/04/14 16:59:32;;;;;;;13.75;4.18;;;;;;;;;;4985094;28;20044;-76
2022/04/14 17:01:58;;;;;;;18.17;5.05;;;;;;;;;;5000380;28;20124;-76
2022/04/14 17:04:24;;;;;;;16.63;5.90;;;;;;;;;;4995225;28;20448;-76
2022/04/14 17:06:50;;;;;;;16.77;5.72;;;;;;;;;;4983356;28;20402;-77
2022/04/14 17:09:16;;;;;;;29.17;7.63;;;;;;;;;;4995503;28;20050;-75
2022/04/14 17:11:43;;;;;;;22.40;6.05;;;;;;;;;;4985795;28;20041;-74
2022/04/14 17:14:09;;;;;;;16.13;5.47;;;;;;;;;;4987115;28;20050;-73
2022/04/14 17:16:34;;;;;;;19.00;5.15;;;;;;;;;;4992363;28;20050;-73
2022/04/14 17:19:00;;;;;;;12.00;4.07;;;;;;;;;;4954851;28;20043;-73
2022/04/14 17:24:21;;;;;;;19.15;4.70;;;;;;;;;;4975787;28;20050;-73
2022/04/14 17:26:48;;;;;;;14.70;4.78;;;;;;;;;;4984424;28;20077;-74
2022/04/14 17:29:13;;;;;;;14.25;5.22;;;;;;;;;;4991348;28;20042;-73
2022/04/14 17:31:39;;;;;;;14.88;5.38;;;;;;;;;;4991620;28;20054;-73
2022/04/14 17:34:05;;;;;;;17.55;5.85;;;;;;;;;;4974403;28;20048;-73
2022/04/14 17:36:32;;;;;;;23.30;6.90;;;;;;;;;;5026584;28;20440;-72
2022/04/14 17:38:58;;;;;;;18.80;5.93;;;;;;;;;;5008133;28;20070;-72
2022/04/14 17:41:24;;;;;;;17.05;6.03;;;;;;;;;;5010576;28;20088;-71
2022/04/14 17:43:49;;;;;;;7.43;4.20;;;;;;;;;;5021064;28;20121;-72
2022/04/14 17:46:15;;;;;;;14.10;5.30;;;;;;;;;;5030566;28;20088;-72
2022/04/14 17:48:41;;;;;;;17.27;7.68;;;;;;;;;;4996893;28;20088;-72
2022/04/14 17:51:07;;;;;;;7.57;6.78;;;;;;;;;;5010813;28;20128;-71
2022/04/14 17:53:33;;;;;;;10.00;7.40;;;;;;;;;;5011044;28;20042;-72
2022/04/14 17:55:59;;;;;;;11.07;4.70;;;;;;;;;;5010664;28;20076;-71
2022/04/14 17:58:24;;;;;;;12.80;3.70;;;;;;;;;;5010733;28;20038;-71
2022/04/14 18:00:50;;;;;;;11.05;3.75;;;;;;;;;;5010616;28;20060;-71
2022/04/14 18:03:16;;;;;;;6.35;3.97;;;;;;;;;;5010624;28;20038;-71
2022/04/14 18:05:42;;;;;;;10.15;3.72;;;;;;;;;;4993020;28;20053;-72
2022/04/14 18:08:09;;;;;;;8.00;3.00;;;;;;;;;;5010425;28;20064;-72
2022/04/14 18:10:35;;;;;;;5.50;4.03;;;;;;;;;;4977915;28;20038;-72
2022/04/14 18:13:03;;;;;;;10.68;6.38;;;;;;;;;;4999460;28;20545;-71
2022/04/14 18:15:30;;;;;;;23.80;17.00;;;;;;;;;;5022920;28;20065;-71
2022/04/14 18:17:55;;;;;;;9.15;3.25;;;;;;;;;;5008400;28;20038;-71
2022/04/14 18:20:22;;;;;;;6.25;3.65;;;;;;;;;;5007812;28;20045;-71
2022/04/14 18:22:53;;;;;;;4.90;3.22;;;;;;;;;;5023512;28;20092;-71
2022/04/14 18:25:19;;;;;;;;;;;;;;;;;;5024709;28;20042;-72
2022/04/14 18:27:46;;;;;;;5.20;3.30;;;;;;;;;;5008168;28;20498;-73
2022/04/14 18:30:12;;;;;;;8.60;3.22;;;;;;;;;;5014512;28;20038;-72
2022/04/14 18:32:38;;;;;;;5.15;2.78;;;;;;;;;;5005332;28;20426;-72
2022/04/14 18:35:05;;;;;;;5.85;4.30;;;;;;;;;;5009258;28;20049;-72
2022/04/14 18:37:31;;;;;;;4.90;3.70;;;;;;;;;;5005833;28;20030;-73
2022/04/14 18:39:57;;;;;;;11.45;4.43;;;;;;;;;;5020122;28;20538;-71
2022/04/14 18:42:23;;;;;;;9.98;3.72;;;;;;;;;;5011531;28;20045;-72
2022/04/14 18:44:48;;;;;;;5.78;4.47;;;;;;;;;;5029418;28;20052;-72
2022/04/14 18:47:15;;;;;;;4.78;2.90;;;;;;;;;;5011968;28;20045;-73
2022/04/14 18:49:41;;;;;;;13.93;5.18;;;;;;;;;;5022637;28;20038;-71
2022/04/14 18:52:07;;;;;;;10.65;5.95;;;;;;;;;;4992872;28;20045;-72
2022/04/14 18:54:32;;;;;;;11.77;3.50;;;;;;;;;;5010198;28;20049;-73
2022/04/14 18:57:00;;;;;;;6.88;3.60;;;;;;;;;;5009479;28;20242;-73
2022/04/14 18:59:26;;;;;;;10.65;4.05;;;;;;;;;;5009836;28;20099;-73
2022/04/14 19:01:52;;;;;;;5.45;3.20;;;;;;;;;;5009771;28;20041;-75
2022/04/14 19:04:18;;;;;;;10.82;3.55;;;;;;;;;;4992929;28;20052;-73
2022/04/14 19:06:46;;;;;;;7.60;3.40;;;;;;;;;;5009786;28;20576;-74
2022/04/14 19:09:12;;;;;;;8.43;3.20;;;;;;;;;;4991869;28;20049;-74
2022/04/14 19:11:38;;;;;;;4.70;3.08;;;;;;;;;;5009636;28;20421;-73
2022/04/14 19:14:05;;;;;;;8.50;3.13;;;;;;;;;;4991578;28;20073;-74
2022/04/14 19:16:31;;;;;;;4.45;2.90;;;;;;;;;;4992049;28;20682;-74
2022/04/14 19:18:56;;;;;;;5.93;3.28;;;;;;;;;;5007359;28;20065;-74
2022/04/14 19:21:22;;;;;;;6.38;3.10;;;;;;;;;;5014871;28;20041;-74
2022/04/14 19:23:48;;;;;;;3.92;3.50;;;;;;;;;;5029240;28;20413;-74
2022/04/14 19:26:14;;;;;;;10.10;3.88;;;;;;;;;;5025700;28;20049;-74
2022/04/14 19:28:40;;;;;;;8.95;3.40;;;;;;;;;;5011358;28;20091;-73
2022/04/14 19:31:06;;;;;;;9.10;4.20;;;;;;;;;;5010990;28;20045;-72
2022/04/14 19:33:32;;;;;;;4.68;3.17;;;;;;;;;;5028434;28;20037;-73
2022/04/14 19:35:58;;;;;;;6.75;3.17;;;;;;;;;;5028368;28;20057;-73
2022/04/14 19:38:24;;;;;;;12.23;3.40;;;;;;;;;;5029234;28;20053;-74
2022/04/14 19:40:50;;;;;;;10.98;3.83;;;;;;;;;;5010996;28;20409;-73
2022/04/14 19:43:16;;;;;;;5.18;4.57;;;;;;;;;;5029313;28;20091;-72
2022/04/14 19:45:42;;;;;;;4.18;3.25;;;;;;;;;;5029952;28;20046;-72
2022/04/14 19:48:08;;;;;;;7.93;3.30;;;;;;;;;;4998456;28;20563;-73
2022/04/14 19:50:34;;;;;;;5.20;3.13;;;;;;;;;;5031408;28;20037;-71
2022/04/14 19:53:01;;;;;;;7.63;3.13;;;;;;;;;;5018462;28;21021;-71
2022/04/14 19:55:28;;;;;;;6.85;4.03;;;;;;;;;;5017294;28;20057;-71
2022/04/14 19:57:54;;;;;;;4.72;3.10;;;;;;;;;;5010503;28;20121;-71
2022/04/14 20:00:20;;;;;;;4.28;2.97;;;;;;;;;;5011724;28;20101;-71
2022/04/14 20:02:45;;;;;;;11.38;4.00;;;;;;;;;;4979751;28;20533;-71
2022/04/14 20:05:12;;;;;;;5.75;3.40;;;;;;;;;;5009850;28;20131;-71
2022/04/14 20:07:39;;;;;;;6.68;3.60;;;;;;;;;;5023134;28;20057;-72
2022/04/14 20:10:06;;;;;;;5.35;2.90;;;;;;;;;;5007415;28;20553;-71
2022/04/14 20:12:32;;;;;;;5.15;2.83;;;;;;;;;;4991015;28;20053;-71
2022/04/14 20:15:00;;;;;;;3.22;2.55;;;;;;;;;;4991935;28;20425;-71
2022/04/14 20:17:26;;;;;;;5.05;2.97;;;;;;;;;;4974955;28;20038;-71
2022/04/14 20:19:52;;;;;;;4.15;2.55;;;;;;;;;;5023863;28;20520;-71
2022/04/14 20:22:18;;;;;;;8.82;2.78;;;;;;;;;;5008354;28;20050;-70
2022/04/14 20:24:47;;;;;;;8.63;2.80;;;;;;;;;;5020899;28;20414;-73